• Join FlightAware (Why Join?)
  • Login
  • US Flag 
05:17AM EDT


 

Airport Tracker/Info


-or-


 

Live Flight TrackerFlight Track Log ✈ N59826 ✈ 19-Jul-2013 ✈ PAFA / FAI - PABT / BTT

Flight Track Log - Related Links

Times and Time Zones

All times are in EDT time to prevent confusion due to time zone crossing. See the N59826 flight status page for this flight to view local times or setup timezone preferences in your user account.

Time Position Orientation Groundspeed Altitude Reporting Facility
EDT Latitude Longitude Course Direction KTS MPH feet Rate Location/Type
05:00PM 64.6833 -148.1000 327° Northwest 100 115 3,800  Level Anchorage Center
05:01PM 65.0611 -148.2500 308° West  Level FlightAware Approximate
05:01PM 64.7000 -148.1500 308° West 130 150 4,300  Level Anchorage Center
05:02PM 65.0966 -148.3129 327° Northwest  Level FlightAware Approximate
05:02PM 64.7333 -148.1833 337° Northwest 130 150 4,700  Level Anchorage Center
05:03PM 65.1339 -148.3709 327° Northwest  Level FlightAware Approximate
05:03PM 64.7667 -148.2167 337° Northwest 120 138 5,300  Level Anchorage Center
05:04PM 65.1713 -148.4290 327° Northwest  Level FlightAware Approximate
05:04PM 64.8000 -148.2667 327° Northwest 120 138 5,800  Level Anchorage Center
05:05PM 65.2086 -148.4873 327° Northwest  Level FlightAware Approximate
05:05PM 64.8333 -148.3000 337° Northwest 120 138 6,200  Level Anchorage Center
05:06PM 64.8500 -148.3333 320° Northwest 120 138 6,600 180 Climbing Anchorage Center
05:07PM 64.8833 -148.3667 337° Northwest 150 173 6,600  Level Anchorage Center
05:08PM 64.9333 -148.4167 337° Northwest 150 173 6,600  Level Anchorage Center
05:09PM 64.9667 -148.4667 328° Northwest 150 173 6,600  Level Anchorage Center
05:10PM 65.0000 -148.5167 328° Northwest 150 173 6,600  Level Anchorage Center
05:11PM 65.0333 -148.5667 328° Northwest 150 173 6,600  Level Anchorage Center
05:12PM 65.0667 -148.6333 320° Northwest 150 173 6,600  Level Anchorage Center
05:13PM 65.1000 -148.6833 328° Northwest 160 184 6,600  Level Anchorage Center
05:14PM 65.1333 -148.7333 328° Northwest 160 184 6,600  Level Anchorage Center
05:15PM 65.1833 -148.8000 331° Northwest 150 173 6,600  Level Anchorage Center
05:16PM 65.2167 -148.8333 337° Northwest 150 173 6,600  Level Anchorage Center
05:17PM 65.2500 -148.9000 320° Northwest 150 173 6,600  Level Anchorage Center
05:18PM 65.2833 -148.9500 328° Northwest 160 184 6,600  Level Anchorage Center
05:19PM 65.3333 -149.0000 337° Northwest 160 184 6,600  Level Anchorage Center
05:20PM 65.3667 -149.0667 320° Northwest 160 184 6,600  Level Anchorage Center
05:21PM 65.4000 -149.1167 328° Northwest 160 184 6,600  Level Anchorage Center
05:22PM 65.4500 -149.1833 331° Northwest 160 184 6,600  Level Anchorage Center
05:23PM 65.4833 -149.2333 328° Northwest 150 173 6,600 240 Level Anchorage Center
05:24PM 65.5167 -149.2667 337° Northwest 150 173 7,200 600 Climbing Anchorage Center
05:25PM 65.5500 -149.2833 348° North 140 161 7,800 420 Climbing Anchorage Center
05:26PM 65.6000 -149.2833 360° North 130 150 8,100 180 Climbing Anchorage Center
05:27PM 65.6333 -149.3000 348° North 160 184 8,200  Climbing Anchorage Center
05:28PM 65.6833 -149.3167 352° North 170 196 8,100 -60 Descending Anchorage Center
05:29PM 65.7167 -149.3833 321° Northwest 160 184 8,100  Level Anchorage Center
05:32PM 65.7569 -149.4512 325° Northwest  Level FlightAware Approximate
05:39PM 65.9759 -149.8250 325° Northwest  Level FlightAware Approximate
05:40PM 66.0071 -149.8789 325° Northwest  Level FlightAware Approximate
05:41PM 66.0383 -149.9330 325° Northwest  Level FlightAware Approximate
05:42PM 66.0695 -149.9872 325° Northwest  Level FlightAware Approximate
05:43PM 66.1006 -150.0415 325° Northwest  Level FlightAware Approximate
05:44PM 66.1318 -150.0960 325° Northwest  Level FlightAware Approximate
05:45PM 66.1629 -150.1505 325° Northwest  Level FlightAware Approximate
05:46PM 66.1940 -150.2053 325° Northwest  Level FlightAware Approximate
05:47PM 66.2251 -150.2601 325° Northwest  Level FlightAware Approximate
05:48PM 66.2561 -150.3151 325° Northwest  Level FlightAware Approximate
05:49PM 66.2871 -150.3703 324° Northwest  Level FlightAware Approximate
05:50PM 66.3182 -150.4255 324° Northwest  Level FlightAware Approximate
05:51PM 66.3492 -150.4809 324° Northwest  Level FlightAware Approximate
05:52PM 66.3801 -150.5365 324° Northwest  Level FlightAware Approximate
05:53PM 66.4111 -150.5922 324° Northwest  Level FlightAware Approximate
05:54PM 66.4420 -150.6480 324° Northwest  Level FlightAware Approximate
05:55PM 66.4730 -150.7039 324° Northwest  Level FlightAware Approximate
05:56PM 66.5039 -150.7600 324° Northwest  Level FlightAware Approximate
05:57PM 66.5388 -150.8103 323° Northwest  Level FlightAware Approximate
05:58PM 66.5694 -150.8677 323° Northwest  Level FlightAware Approximate
05:59PM 66.5999 -150.9252 323° Northwest  Level FlightAware Approximate
06:00PM 66.6304 -150.9829 323° Northwest  Level FlightAware Approximate
06:01PM 66.6609 -151.0407 323° Northwest  Level FlightAware Approximate
06:02PM 66.6913 -151.0991 322° Northwest  Level FlightAware Approximate
06:03PM 66.7213 -151.1586 322° Northwest  Level FlightAware Approximate
06:04PM 66.7513 -151.2184 322° Northwest  Level FlightAware Approximate
06:05PM 66.7812 -151.2782 322° Northwest  Level FlightAware Approximate
06:06PM 66.8112 -151.3383 322° Northwest  Level FlightAware Approximate
06:07PM 66.8411 -151.3984 322° Northwest  Level FlightAware Approximate
06:08PM 66.8710 -151.4587 322° Northwest  Level FlightAware Approximate
06:09PM 66.9000 -151.5167 322° Northwest  Level FlightAware Approximate
06:10PM 66.9139 -151.5291 322° Northwest  Level Estimated
06:11PM 66.9139 -151.5291 322° Northwest  Level Estimated
06:12PM 66.9139 -151.5291 322° Northwest  Level Estimated
06:13PM 66.9139 -151.5291 322° Northwest  Level Estimated
06:14PM 66.9139 -151.5291 322° Northwest  Level Estimated
06:15PM 66.9139 -151.5291 322° Northwest  Level Estimated
06:16PM 66.9139 -151.5291 322° Northwest  Level Estimated
06:17PM 66.9139 -151.5291 322° Northwest  Level Estimated
06:18PM 66.9139 -151.5291 322° Northwest  Level Estimated
06:19PM 66.9139 -151.5291 322° Northwest  Level Estimated